sensor_id;sensor_type;location;lat;lon;timestamp;P1;durP1;ratioP1;P2;durP2;ratioP2
46753;SDS011;32500;50.620;3.400;2024-01-11T00:01:58;124.97;;;58.08;;
46753;SDS011;32500;50.620;3.400;2024-01-11T00:04:24;123.22;;;58.25;;
46753;SDS011;32500;50.620;3.400;2024-01-11T00:06:50;124.97;;;58.25;;
46753;SDS011;32500;50.620;3.400;2024-01-11T00:09:16;126.68;;;58.30;;
46753;SDS011;32500;50.620;3.400;2024-01-11T00:11:41;127.97;;;59.00;;
46753;SDS011;32500;50.620;3.400;2024-01-11T00:14:07;125.40;;;58.22;;
46753;SDS011;32500;50.620;3.400;2024-01-11T00:16:33;122.40;;;58.30;;
46753;SDS011;32500;50.620;3.400;2024-01-11T00:18:59;123.60;;;57.95;;
46753;SDS011;32500;50.620;3.400;2024-01-11T00:21:25;121.43;;;58.00;;
46753;SDS011;32500;50.620;3.400;2024-01-11T00:23:51;121.55;;;57.83;;
46753;SDS011;32500;50.620;3.400;2024-01-11T00:26:16;122.70;;;57.83;;
46753;SDS011;32500;50.620;3.400;2024-01-11T00:28:42;123.20;;;58.60;;
46753;SDS011;32500;50.620;3.400;2024-01-11T00:31:08;120.85;;;57.65;;
46753;SDS011;32500;50.620;3.400;2024-01-11T00:33:33;123.32;;;58.20;;
46753;SDS011;32500;50.620;3.400;2024-01-11T00:35:59;125.15;;;58.67;;
46753;SDS011;32500;50.620;3.400;2024-01-11T00:38:25;121.50;;;58.30;;
46753;SDS011;32500;50.620;3.400;2024-01-11T00:40:50;123.53;;;57.88;;
46753;SDS011;32500;50.620;3.400;2024-01-11T00:43:16;121.75;;;57.92;;
46753;SDS011;32500;50.620;3.400;2024-01-11T00:45:42;127.18;;;58.25;;
46753;SDS011;32500;50.620;3.400;2024-01-11T00:48:08;123.45;;;57.92;;
46753;SDS011;32500;50.620;3.400;2024-01-11T00:50:34;121.07;;;57.83;;
46753;SDS011;32500;50.620;3.400;2024-01-11T00:53:00;121.25;;;58.47;;
46753;SDS011;32500;50.620;3.400;2024-01-11T00:55:26;121.50;;;58.03;;
46753;SDS011;32500;50.620;3.400;2024-01-11T00:57:52;121.93;;;57.95;;
46753;SDS011;32500;50.620;3.400;2024-01-11T01:00:17;121.30;;;57.58;;
46753;SDS011;32500;50.620;3.400;2024-01-11T01:02:43;120.68;;;57.55;;
46753;SDS011;32500;50.620;3.400;2024-01-11T01:05:09;123.05;;;58.75;;
46753;SDS011;32500;50.620;3.400;2024-01-11T01:07:35;120.35;;;57.75;;
46753;SDS011;32500;50.620;3.400;2024-01-11T01:10:00;122.38;;;58.17;;
46753;SDS011;32500;50.620;3.400;2024-01-11T01:12:27;122.18;;;58.50;;
46753;SDS011;32500;50.620;3.400;2024-01-11T01:14:53;121.57;;;57.95;;
46753;SDS011;32500;50.620;3.400;2024-01-11T01:17:20;119.88;;;57.95;;
46753;SDS011;32500;50.620;3.400;2024-01-11T01:19:49;120.90;;;58.30;;
46753;SDS011;32500;50.620;3.400;2024-01-11T01:22:14;121.72;;;58.20;;
46753;SDS011;32500;50.620;3.400;2024-01-11T01:24:40;119.30;;;57.95;;
46753;SDS011;32500;50.620;3.400;2024-01-11T01:27:06;122.80;;;58.75;;
46753;SDS011;32500;50.620;3.400;2024-01-11T01:29:31;121.13;;;57.95;;
46753;SDS011;32500;50.620;3.400;2024-01-11T01:31:57;121.90;;;58.28;;
46753;SDS011;32500;50.620;3.400;2024-01-11T01:34:23;120.68;;;58.22;;
46753;SDS011;32500;50.620;3.400;2024-01-11T01:36:48;121.10;;;58.17;;
46753;SDS011;32500;50.620;3.400;2024-01-11T01:39:14;121.40;;;58.53;;
46753;SDS011;32500;50.620;3.400;2024-01-11T01:41:39;120.90;;;58.03;;
46753;SDS011;32500;50.620;3.400;2024-01-11T01:44:05;121.70;;;58.33;;
46753;SDS011;32500;50.620;3.400;2024-01-11T01:46:31;122.32;;;57.88;;
46753;SDS011;32500;50.620;3.400;2024-01-11T01:48:57;120.93;;;58.33;;
46753;SDS011;32500;50.620;3.400;2024-01-11T01:51:23;123.82;;;58.75;;
46753;SDS011;32500;50.620;3.400;2024-01-11T01:53:52;121.20;;;58.53;;
46753;SDS011;32500;50.620;3.400;2024-01-11T01:56:19;121.20;;;57.88;;
46753;SDS011;32500;50.620;3.400;2024-01-11T01:58:46;122.82;;;58.17;;
46753;SDS011;32500;50.620;3.400;2024-01-11T02:01:13;119.40;;;58.17;;
46753;SDS011;32500;50.620;3.400;2024-01-11T02:03:40;121.18;;;58.25;;
46753;SDS011;32500;50.620;3.400;2024-01-11T02:06:06;120.55;;;58.20;;
46753;SDS011;32500;50.620;3.400;2024-01-11T02:08:32;123.93;;;57.75;;
46753;SDS011;32500;50.620;3.400;2024-01-11T02:11:00;120.32;;;58.15;;
46753;SDS011;32500;50.620;3.400;2024-01-11T02:13:26;121.57;;;57.75;;
46753;SDS011;32500;50.620;3.400;2024-01-11T02:15:52;120.65;;;58.33;;
46753;SDS011;32500;50.620;3.400;2024-01-11T02:18:17;121.18;;;58.22;;
46753;SDS011;32500;50.620;3.400;2024-01-11T02:20:43;119.95;;;57.53;;
46753;SDS011;32500;50.620;3.400;2024-01-11T02:23:11;120.93;;;57.95;;
46753;SDS011;32500;50.620;3.400;2024-01-11T02:25:44;120.10;;;57.58;;
46753;SDS011;32500;50.620;3.400;2024-01-11T02:28:10;118.43;;;57.28;;
46753;SDS011;32500;50.620;3.400;2024-01-11T02:30:36;121.20;;;58.13;;
46753;SDS011;32500;50.620;3.400;2024-01-11T02:33:02;120.00;;;57.67;;
46753;SDS011;32500;50.620;3.400;2024-01-11T02:35:29;121.03;;;58.70;;
46753;SDS011;32500;50.620;3.400;2024-01-11T02:37:56;119.25;;;57.42;;
46753;SDS011;32500;50.620;3.400;2024-01-11T02:40:23;121.18;;;58.15;;
46753;SDS011;32500;50.620;3.400;2024-01-11T02:42:50;120.80;;;58.10;;
46753;SDS011;32500;50.620;3.400;2024-01-11T02:45:16;121.30;;;57.72;;
46753;SDS011;32500;50.620;3.400;2024-01-11T02:47:42;122.20;;;58.30;;
46753;SDS011;32500;50.620;3.400;2024-01-11T02:50:07;119.65;;;57.75;;
46753;SDS011;32500;50.620;3.400;2024-01-11T02:52:34;122.10;;;58.50;;
46753;SDS011;32500;50.620;3.400;2024-01-11T02:54:59;119.97;;;57.80;;
46753;SDS011;32500;50.620;3.400;2024-01-11T02:57:25;119.93;;;57.47;;
46753;SDS011;32500;50.620;3.400;2024-01-11T02:59:51;119.50;;;57.67;;
46753;SDS011;32500;50.620;3.400;2024-01-11T03:02:16;119.93;;;58.08;;
46753;SDS011;32500;50.620;3.400;2024-01-11T03:04:42;121.38;;;58.35;;
46753;SDS011;32500;50.620;3.400;2024-01-11T03:07:08;123.00;;;57.78;;
46753;SDS011;32500;50.620;3.400;2024-01-11T03:09:34;121.57;;;58.40;;
46753;SDS011;32500;50.620;3.400;2024-01-11T03:11:59;121.18;;;58.30;;
46753;SDS011;32500;50.620;3.400;2024-01-11T03:14:25;119.50;;;57.83;;
46753;SDS011;32500;50.620;3.400;2024-01-11T03:16:51;119.45;;;57.83;;
46753;SDS011;32500;50.620;3.400;2024-01-11T03:19:17;119.63;;;57.88;;
46753;SDS011;32500;50.620;3.400;2024-01-11T03:21:45;118.60;;;57.78;;
46753;SDS011;32500;50.620;3.400;2024-01-11T03:24:12;120.28;;;57.83;;
46753;SDS011;32500;50.620;3.400;2024-01-11T03:26:38;120.78;;;57.78;;
46753;SDS011;32500;50.620;3.400;2024-01-11T03:29:04;117.75;;;57.33;;
46753;SDS011;32500;50.620;3.400;2024-01-11T03:31:30;118.18;;;57.33;;
46753;SDS011;32500;50.620;3.400;2024-01-11T03:33:56;120.22;;;58.00;;
46753;SDS011;32500;50.620;3.400;2024-01-11T03:36:25;121.47;;;58.30;;
46753;SDS011;32500;50.620;3.400;2024-01-11T03:38:50;123.00;;;57.20;;
46753;SDS011;32500;50.620;3.400;2024-01-11T03:41:16;117.70;;;57.63;;
46753;SDS011;32500;50.620;3.400;2024-01-11T03:43:42;119.90;;;57.78;;
46753;SDS011;32500;50.620;3.400;2024-01-11T03:46:07;118.78;;;57.40;;
46753;SDS011;32500;50.620;3.400;2024-01-11T03:48:33;119.70;;;57.17;;
46753;SDS011;32500;50.620;3.400;2024-01-11T03:51:01;117.93;;;57.22;;
46753;SDS011;32500;50.620;3.400;2024-01-11T03:53:27;121.65;;;58.60;;
46753;SDS011;32500;50.620;3.400;2024-01-11T03:55:53;120.65;;;57.88;;
46753;SDS011;32500;50.620;3.400;2024-01-11T03:58:19;119.55;;;57.65;;
46753;SDS011;32500;50.620;3.400;2024-01-11T04:00:44;120.50;;;57.88;;
46753;SDS011;32500;50.620;3.400;2024-01-11T04:03:10;119.68;;;58.10;;
46753;SDS011;32500;50.620;3.400;2024-01-11T04:05:36;119.00;;;57.42;;
46753;SDS011;32500;50.620;3.400;2024-01-11T04:08:05;119.35;;;57.60;;
46753;SDS011;32500;50.620;3.400;2024-01-11T04:10:34;116.35;;;57.20;;
46753;SDS011;32500;50.620;3.400;2024-01-11T04:13:00;118.35;;;57.80;;
46753;SDS011;32500;50.620;3.400;2024-01-11T04:15:25;118.38;;;57.60;;
46753;SDS011;32500;50.620;3.400;2024-01-11T04:17:51;118.57;;;57.63;;
46753;SDS011;32500;50.620;3.400;2024-01-11T04:20:17;120.40;;;57.17;;
46753;SDS011;32500;50.620;3.400;2024-01-11T04:22:43;119.03;;;57.45;;
46753;SDS011;32500;50.620;3.400;2024-01-11T04:25:08;118.43;;;57.30;;
46753;SDS011;32500;50.620;3.400;2024-01-11T04:27:35;118.43;;;57.28;;
46753;SDS011;32500;50.620;3.400;2024-01-11T04:30:00;118.43;;;57.85;;
46753;SDS011;32500;50.620;3.400;2024-01-11T04:32:26;118.43;;;57.83;;
46753;SDS011;32500;50.620;3.400;2024-01-11T04:34:52;118.10;;;57.38;;
46753;SDS011;32500;50.620;3.400;2024-01-11T04:37:17;120.85;;;57.83;;
46753;SDS011;32500;50.620;3.400;2024-01-11T04:39:44;119.13;;;57.13;;
46753;SDS011;32500;50.620;3.400;2024-01-11T04:42:10;120.32;;;57.80;;
46753;SDS011;32500;50.620;3.400;2024-01-11T04:44:35;118.07;;;57.00;;
46753;SDS011;32500;50.620;3.400;2024-01-11T04:47:01;117.53;;;56.92;;
46753;SDS011;32500;50.620;3.400;2024-01-11T04:49:27;117.18;;;57.30;;
46753;SDS011;32500;50.620;3.400;2024-01-11T04:51:52;122.18;;;58.33;;
46753;SDS011;32500;50.620;3.400;2024-01-11T04:54:18;119.50;;;57.80;;
46753;SDS011;32500;50.620;3.400;2024-01-11T04:56:43;119.07;;;57.28;;
46753;SDS011;32500;50.620;3.400;2024-01-11T04:59:09;117.78;;;57.42;;
46753;SDS011;32500;50.620;3.400;2024-01-11T05:01:35;120.75;;;57.63;;
46753;SDS011;32500;50.620;3.400;2024-01-11T05:04:01;118.38;;;57.35;;
46753;SDS011;32500;50.620;3.400;2024-01-11T05:06:26;116.93;;;57.13;;
46753;SDS011;32500;50.620;3.400;2024-01-11T05:08:52;119.80;;;57.15;;
46753;SDS011;32500;50.620;3.400;2024-01-11T05:11:18;117.47;;;57.03;;
46753;SDS011;32500;50.620;3.400;2024-01-11T05:13:44;119.22;;;57.22;;
46753;SDS011;32500;50.620;3.400;2024-01-11T05:18:46;121.45;;;57.70;;
46753;SDS011;32500;50.620;3.400;2024-01-11T05:21:12;117.65;;;57.22;;
46753;SDS011;32500;50.620;3.400;2024-01-11T05:23:37;119.25;;;58.15;;
46753;SDS011;32500;50.620;3.400;2024-01-11T05:26:03;119.50;;;57.38;;
46753;SDS011;32500;50.620;3.400;2024-01-11T05:28:29;120.10;;;57.58;;
46753;SDS011;32500;50.620;3.400;2024-01-11T05:30:54;120.57;;;58.00;;
46753;SDS011;32500;50.620;3.400;2024-01-11T05:33:20;119.68;;;57.42;;
46753;SDS011;32500;50.620;3.400;2024-01-11T05:35:45;118.70;;;57.00;;
46753;SDS011;32500;50.620;3.400;2024-01-11T05:38:11;118.35;;;57.42;;
46753;SDS011;32500;50.620;3.400;2024-01-11T05:40:37;118.25;;;57.35;;
46753;SDS011;32500;50.620;3.400;2024-01-11T05:43:02;119.18;;;57.58;;
46753;SDS011;32500;50.620;3.400;2024-01-11T05:45:28;118.15;;;57.25;;
46753;SDS011;32500;50.620;3.400;2024-01-11T05:47:54;118.35;;;56.88;;
46753;SDS011;32500;50.620;3.400;2024-01-11T05:50:20;117.10;;;57.72;;
46753;SDS011;32500;50.620;3.400;2024-01-11T05:52:45;117.90;;;57.47;;
46753;SDS011;32500;50.620;3.400;2024-01-11T05:55:11;118.88;;;57.33;;
46753;SDS011;32500;50.620;3.400;2024-01-11T05:57:37;119.25;;;57.60;;
46753;SDS011;32500;50.620;3.400;2024-01-11T06:00:03;118.88;;;57.65;;
46753;SDS011;32500;50.620;3.400;2024-01-11T06:02:30;118.55;;;57.30;;
46753;SDS011;32500;50.620;3.400;2024-01-11T06:04:56;116.85;;;57.08;;
46753;SDS011;32500;50.620;3.400;2024-01-11T06:07:22;118.43;;;57.17;;
46753;SDS011;32500;50.620;3.400;2024-01-11T06:09:48;121.10;;;57.53;;
46753;SDS011;32500;50.620;3.400;2024-01-11T06:12:14;116.78;;;56.58;;
46753;SDS011;32500;50.620;3.400;2024-01-11T06:14:40;118.45;;;57.55;;
46753;SDS011;32500;50.620;3.400;2024-01-11T06:17:05;119.93;;;57.85;;
46753;SDS011;32500;50.620;3.400;2024-01-11T06:19:31;116.97;;;56.97;;
46753;SDS011;32500;50.620;3.400;2024-01-11T06:21:57;116.88;;;56.70;;
46753;SDS011;32500;50.620;3.400;2024-01-11T06:24:23;120.72;;;57.35;;
46753;SDS011;32500;50.620;3.400;2024-01-11T06:26:49;122.70;;;57.20;;
46753;SDS011;32500;50.620;3.400;2024-01-11T06:29:14;119.47;;;57.08;;
46753;SDS011;32500;50.620;3.400;2024-01-11T06:31:40;117.57;;;57.28;;
46753;SDS011;32500;50.620;3.400;2024-01-11T06:34:06;119.55;;;57.10;;
46753;SDS011;32500;50.620;3.400;2024-01-11T06:36:31;117.10;;;56.90;;
46753;SDS011;32500;50.620;3.400;2024-01-11T06:38:57;118.63;;;57.72;;
46753;SDS011;32500;50.620;3.400;2024-01-11T06:41:23;117.70;;;57.22;;
46753;SDS011;32500;50.620;3.400;2024-01-11T06:43:49;120.70;;;57.35;;
46753;SDS011;32500;50.620;3.400;2024-01-11T06:46:19;118.20;;;57.38;;
46753;SDS011;32500;50.620;3.400;2024-01-11T06:48:45;118.40;;;57.10;;
46753;SDS011;32500;50.620;3.400;2024-01-11T06:51:14;121.63;;;57.28;;
46753;SDS011;32500;50.620;3.400;2024-01-11T06:53:40;119.72;;;57.53;;
46753;SDS011;32500;50.620;3.400;2024-01-11T06:56:16;118.05;;;56.97;;
46753;SDS011;32500;50.620;3.400;2024-01-11T06:58:43;120.50;;;56.80;;
46753;SDS011;32500;50.620;3.400;2024-01-11T07:01:10;121.75;;;57.75;;
46753;SDS011;32500;50.620;3.400;2024-01-11T07:03:36;123.03;;;57.42;;
46753;SDS011;32500;50.620;3.400;2024-01-11T07:06:02;122.40;;;57.05;;
46753;SDS011;32500;50.620;3.400;2024-01-11T07:08:28;119.35;;;57.53;;
46753;SDS011;32500;50.620;3.400;2024-01-11T07:10:55;117.60;;;57.50;;
46753;SDS011;32500;50.620;3.400;2024-01-11T07:13:21;118.55;;;57.42;;
46753;SDS011;32500;50.620;3.400;2024-01-11T07:15:47;120.32;;;57.17;;
46753;SDS011;32500;50.620;3.400;2024-01-11T07:18:13;119.65;;;57.53;;
46753;SDS011;32500;50.620;3.400;2024-01-11T07:20:39;119.93;;;57.28;;
46753;SDS011;32500;50.620;3.400;2024-01-11T07:23:05;119.53;;;57.70;;
46753;SDS011;32500;50.620;3.400;2024-01-11T07:25:31;118.00;;;57.33;;
46753;SDS011;32500;50.620;3.400;2024-01-11T07:27:59;117.97;;;57.75;;
46753;SDS011;32500;50.620;3.400;2024-01-11T07:30:25;120.13;;;58.80;;
46753;SDS011;32500;50.620;3.400;2024-01-11T07:32:51;122.20;;;60.60;;
46753;SDS011;32500;50.620;3.400;2024-01-11T07:35:17;135.82;;;66.63;;
46753;SDS011;32500;50.620;3.400;2024-01-11T07:37:42;136.85;;;69.90;;
46753;SDS011;32500;50.620;3.400;2024-01-11T07:40:08;135.27;;;68.10;;
46753;SDS011;32500;50.620;3.400;2024-01-11T07:42:36;135.45;;;67.47;;
46753;SDS011;32500;50.620;3.400;2024-01-11T07:45:03;138.85;;;68.53;;
46753;SDS011;32500;50.620;3.400;2024-01-11T07:47:30;134.77;;;68.72;;
46753;SDS011;32500;50.620;3.400;2024-01-11T07:49:56;134.65;;;67.40;;
46753;SDS011;32500;50.620;3.400;2024-01-11T07:52:21;131.15;;;66.00;;
46753;SDS011;32500;50.620;3.400;2024-01-11T07:54:47;133.48;;;65.90;;
46753;SDS011;32500;50.620;3.400;2024-01-11T07:57:12;138.63;;;66.55;;
46753;SDS011;32500;50.620;3.400;2024-01-11T07:59:38;134.65;;;64.85;;
46753;SDS011;32500;50.620;3.400;2024-01-11T08:02:04;135.45;;;64.88;;
46753;SDS011;32500;50.620;3.400;2024-01-11T08:04:31;131.32;;;63.83;;
46753;SDS011;32500;50.620;3.400;2024-01-11T08:06:57;132.02;;;64.07;;
46753;SDS011;32500;50.620;3.400;2024-01-11T08:09:24;132.25;;;64.22;;
46753;SDS011;32500;50.620;3.400;2024-01-11T08:11:54;133.35;;;63.80;;
46753;SDS011;32500;50.620;3.400;2024-01-11T08:14:20;133.95;;;63.72;;
46753;SDS011;32500;50.620;3.400;2024-01-11T08:16:46;135.73;;;63.13;;
46753;SDS011;32500;50.620;3.400;2024-01-11T08:19:12;131.77;;;63.42;;
46753;SDS011;32500;50.620;3.400;2024-01-11T08:21:40;130.68;;;62.45;;
46753;SDS011;32500;50.620;3.400;2024-01-11T08:24:06;134.55;;;63.20;;
46753;SDS011;32500;50.620;3.400;2024-01-11T08:26:32;130.52;;;63.17;;
46753;SDS011;32500;50.620;3.400;2024-01-11T08:28:58;129.95;;;62.47;;
46753;SDS011;32500;50.620;3.400;2024-01-11T08:31:24;130.85;;;61.83;;
46753;SDS011;32500;50.620;3.400;2024-01-11T08:33:50;134.98;;;62.90;;
46753;SDS011;32500;50.620;3.400;2024-01-11T08:36:16;134.15;;;63.20;;
46753;SDS011;32500;50.620;3.400;2024-01-11T08:38:41;131.15;;;61.63;;
46753;SDS011;32500;50.620;3.400;2024-01-11T08:41:07;131.10;;;62.00;;
46753;SDS011;32500;50.620;3.400;2024-01-11T08:43:33;131.30;;;61.72;;
46753;SDS011;32500;50.620;3.400;2024-01-11T08:45:59;130.20;;;61.35;;
46753;SDS011;32500;50.620;3.400;2024-01-11T08:48:30;130.80;;;62.15;;
46753;SDS011;32500;50.620;3.400;2024-01-11T08:50:56;131.40;;;61.72;;
46753;SDS011;32500;50.620;3.400;2024-01-11T08:53:21;131.70;;;61.85;;
46753;SDS011;32500;50.620;3.400;2024-01-11T08:55:47;132.35;;;62.92;;
46753;SDS011;32500;50.620;3.400;2024-01-11T08:58:13;132.23;;;62.83;;
46753;SDS011;32500;50.620;3.400;2024-01-11T09:00:38;132.63;;;63.53;;
46753;SDS011;32500;50.620;3.400;2024-01-11T09:03:04;130.02;;;62.50;;
46753;SDS011;32500;50.620;3.400;2024-01-11T09:05:30;135.70;;;62.50;;
46753;SDS011;32500;50.620;3.400;2024-01-11T09:07:56;128.57;;;62.55;;
46753;SDS011;32500;50.620;3.400;2024-01-11T09:10:22;129.15;;;61.80;;
46753;SDS011;32500;50.620;3.400;2024-01-11T09:12:48;132.50;;;63.15;;
46753;SDS011;32500;50.620;3.400;2024-01-11T09:15:13;130.27;;;61.75;;
46753;SDS011;32500;50.620;3.400;2024-01-11T09:17:39;131.65;;;62.20;;
46753;SDS011;32500;50.620;3.400;2024-01-11T09:20:05;130.50;;;61.70;;
46753;SDS011;32500;50.620;3.400;2024-01-11T09:22:34;133.15;;;61.70;;
46753;SDS011;32500;50.620;3.400;2024-01-11T09:25:00;130.38;;;62.08;;
46753;SDS011;32500;50.620;3.400;2024-01-11T09:27:25;133.45;;;61.65;;
46753;SDS011;32500;50.620;3.400;2024-01-11T09:29:51;129.57;;;61.63;;
46753;SDS011;32500;50.620;3.400;2024-01-11T09:32:16;133.50;;;61.38;;
46753;SDS011;32500;50.620;3.400;2024-01-11T09:34:42;132.80;;;61.25;;
46753;SDS011;32500;50.620;3.400;2024-01-11T09:37:10;128.82;;;60.55;;
46753;SDS011;32500;50.620;3.400;2024-01-11T09:39:35;130.95;;;61.83;;
46753;SDS011;32500;50.620;3.400;2024-01-11T09:42:10;132.15;;;61.63;;
46753;SDS011;32500;50.620;3.400;2024-01-11T09:44:36;130.15;;;60.53;;
46753;SDS011;32500;50.620;3.400;2024-01-11T09:47:03;130.05;;;60.47;;
46753;SDS011;32500;50.620;3.400;2024-01-11T09:49:31;128.93;;;61.25;;
46753;SDS011;32500;50.620;3.400;2024-01-11T09:51:59;131.27;;;61.03;;
46753;SDS011;32500;50.620;3.400;2024-01-11T09:54:26;129.27;;;60.55;;
46753;SDS011;32500;50.620;3.400;2024-01-11T09:56:52;130.25;;;61.33;;
46753;SDS011;32500;50.620;3.400;2024-01-11T09:59:20;131.25;;;61.38;;
46753;SDS011;32500;50.620;3.400;2024-01-11T10:01:49;139.10;;;68.75;;
46753;SDS011;32500;50.620;3.400;2024-01-11T10:04:15;145.45;;;71.95;;
46753;SDS011;32500;50.620;3.400;2024-01-11T10:06:42;145.50;;;72.97;;
46753;SDS011;32500;50.620;3.400;2024-01-11T10:09:08;150.35;;;73.82;;
46753;SDS011;32500;50.620;3.400;2024-01-11T10:11:35;153.65;;;74.60;;
46753;SDS011;32500;50.620;3.400;2024-01-11T10:14:01;147.30;;;74.40;;
46753;SDS011;32500;50.620;3.400;2024-01-11T10:16:29;147.30;;;73.90;;
46753;SDS011;32500;50.620;3.400;2024-01-11T10:18:55;144.13;;;72.75;;
46753;SDS011;32500;50.620;3.400;2024-01-11T10:21:21;147.07;;;72.55;;
46753;SDS011;32500;50.620;3.400;2024-01-11T10:23:47;146.48;;;72.28;;
46753;SDS011;32500;50.620;3.400;2024-01-11T10:26:17;145.45;;;72.50;;
46753;SDS011;32500;50.620;3.400;2024-01-11T10:28:47;144.15;;;71.15;;
46753;SDS011;32500;50.620;3.400;2024-01-11T10:31:12;148.55;;;72.25;;
46753;SDS011;32500;50.620;3.400;2024-01-11T10:33:41;146.27;;;71.43;;
46753;SDS011;32500;50.620;3.400;2024-01-11T10:36:07;142.23;;;70.00;;
46753;SDS011;32500;50.620;3.400;2024-01-11T10:38:36;142.45;;;69.93;;
46753;SDS011;32500;50.620;3.400;2024-01-11T10:41:07;143.60;;;70.10;;
46753;SDS011;32500;50.620;3.400;2024-01-11T10:43:37;141.52;;;68.90;;
46753;SDS011;32500;50.620;3.400;2024-01-11T10:46:04;140.38;;;69.43;;
46753;SDS011;32500;50.620;3.400;2024-01-11T10:48:31;139.27;;;68.05;;
46753;SDS011;32500;50.620;3.400;2024-01-11T10:51:02;138.48;;;67.82;;
46753;SDS011;32500;50.620;3.400;2024-01-11T10:56:04;139.05;;;67.50;;
46753;SDS011;32500;50.620;3.400;2024-01-11T10:58:34;141.15;;;67.10;;
46753;SDS011;32500;50.620;3.400;2024-01-11T11:01:00;138.18;;;66.00;;
46753;SDS011;32500;50.620;3.400;2024-01-11T11:03:27;136.45;;;66.40;;
46753;SDS011;32500;50.620;3.400;2024-01-11T11:05:56;138.10;;;65.70;;
46753;SDS011;32500;50.620;3.400;2024-01-11T11:08:24;139.15;;;65.65;;
46753;SDS011;32500;50.620;3.400;2024-01-11T11:10:58;135.48;;;64.90;;
46753;SDS011;32500;50.620;3.400;2024-01-11T11:13:25;137.07;;;64.55;;
46753;SDS011;32500;50.620;3.400;2024-01-11T11:15:51;136.60;;;65.35;;
46753;SDS011;32500;50.620;3.400;2024-01-11T11:18:18;134.63;;;64.15;;
46753;SDS011;32500;50.620;3.400;2024-01-11T11:20:47;132.75;;;63.65;;
46753;SDS011;32500;50.620;3.400;2024-01-11T11:23:16;135.40;;;64.10;;
46753;SDS011;32500;50.620;3.400;2024-01-11T11:25:46;132.23;;;63.67;;
46753;SDS011;32500;50.620;3.400;2024-01-11T11:28:14;135.40;;;63.83;;
46753;SDS011;32500;50.620;3.400;2024-01-11T11:30:42;135.10;;;63.78;;
46753;SDS011;32500;50.620;3.400;2024-01-11T11:35:48;133.25;;;63.03;;
46753;SDS011;32500;50.620;3.400;2024-01-11T11:38:20;133.20;;;63.53;;
46753;SDS011;32500;50.620;3.400;2024-01-11T11:40:47;132.02;;;62.75;;
46753;SDS011;32500;50.620;3.400;2024-01-11T11:43:15;131.10;;;63.30;;
46753;SDS011;32500;50.620;3.400;2024-01-11T11:45:42;130.68;;;62.15;;
46753;SDS011;32500;50.620;3.400;2024-01-11T11:53:35;133.27;;;61.75;;
46753;SDS011;32500;50.620;3.400;2024-01-11T11:56:02;132.18;;;61.92;;
46753;SDS011;32500;50.620;3.400;2024-01-11T11:58:29;133.95;;;62.08;;
46753;SDS011;32500;50.620;3.400;2024-01-11T12:00:55;132.98;;;62.00;;
46753;SDS011;32500;50.620;3.400;2024-01-11T12:03:31;132.45;;;62.33;;
46753;SDS011;32500;50.620;3.400;2024-01-11T12:06:01;131.75;;;61.70;;
46753;SDS011;32500;50.620;3.400;2024-01-11T12:08:26;132.30;;;61.80;;
46753;SDS011;32500;50.620;3.400;2024-01-11T12:10:52;131.43;;;62.17;;
46753;SDS011;32500;50.620;3.400;2024-01-11T12:13:18;131.00;;;62.15;;
46753;SDS011;32500;50.620;3.400;2024-01-11T12:15:44;131.40;;;61.60;;
46753;SDS011;32500;50.620;3.400;2024-01-11T12:18:09;131.40;;;61.17;;
46753;SDS011;32500;50.620;3.400;2024-01-11T12:20:35;130.20;;;61.22;;
46753;SDS011;32500;50.620;3.400;2024-01-11T12:23:01;130.65;;;60.97;;
46753;SDS011;32500;50.620;3.400;2024-01-11T12:25:28;129.73;;;59.92;;
46753;SDS011;32500;50.620;3.400;2024-01-11T12:27:54;130.07;;;60.45;;
46753;SDS011;32500;50.620;3.400;2024-01-11T12:30:24;130.25;;;60.90;;
46753;SDS011;32500;50.620;3.400;2024-01-11T12:32:50;131.38;;;60.55;;
46753;SDS011;32500;50.620;3.400;2024-01-11T12:35:16;133.63;;;60.78;;
46753;SDS011;32500;50.620;3.400;2024-01-11T12:37:55;131.82;;;61.45;;
46753;SDS011;32500;50.620;3.400;2024-01-11T12:40:23;130.82;;;60.55;;
46753;SDS011;32500;50.620;3.400;2024-01-11T12:42:49;135.98;;;60.55;;
46753;SDS011;32500;50.620;3.400;2024-01-11T12:45:24;132.73;;;63.83;;
46753;SDS011;32500;50.620;3.400;2024-01-11T12:47:51;130.90;;;62.00;;
46753;SDS011;32500;50.620;3.400;2024-01-11T12:50:17;130.35;;;60.85;;
46753;SDS011;32500;50.620;3.400;2024-01-11T12:52:43;134.25;;;60.88;;
46753;SDS011;32500;50.620;3.400;2024-01-11T12:55:19;129.52;;;60.63;;
46753;SDS011;32500;50.620;3.400;2024-01-11T12:57:44;131.88;;;61.42;;
46753;SDS011;32500;50.620;3.400;2024-01-11T13:00:11;131.70;;;61.90;;
46753;SDS011;32500;50.620;3.400;2024-01-11T13:02:41;131.55;;;61.00;;
46753;SDS011;32500;50.620;3.400;2024-01-11T13:05:09;132.50;;;60.70;;
46753;SDS011;32500;50.620;3.400;2024-01-11T13:07:36;133.30;;;61.55;;
46753;SDS011;32500;50.620;3.400;2024-01-11T13:10:02;130.88;;;60.95;;
46753;SDS011;32500;50.620;3.400;2024-01-11T13:12:29;130.10;;;60.33;;
46753;SDS011;32500;50.620;3.400;2024-01-11T13:14:55;133.52;;;60.88;;
46753;SDS011;32500;50.620;3.400;2024-01-11T13:17:21;131.20;;;60.05;;
46753;SDS011;32500;50.620;3.400;2024-01-11T13:19:46;130.90;;;60.60;;
46753;SDS011;32500;50.620;3.400;2024-01-11T13:22:12;133.13;;;60.78;;
46753;SDS011;32500;50.620;3.400;2024-01-11T13:24:38;130.52;;;60.00;;
46753;SDS011;32500;50.620;3.400;2024-01-11T13:27:03;132.63;;;60.63;;
46753;SDS011;32500;50.620;3.400;2024-01-11T13:29:29;131.70;;;59.85;;
46753;SDS011;32500;50.620;3.400;2024-01-11T13:31:55;136.52;;;60.10;;
46753;SDS011;32500;50.620;3.400;2024-01-11T13:34:20;132.80;;;59.88;;
46753;SDS011;32500;50.620;3.400;2024-01-11T13:36:46;131.02;;;60.22;;
46753;SDS011;32500;50.620;3.400;2024-01-11T13:39:12;131.10;;;59.42;;
46753;SDS011;32500;50.620;3.400;2024-01-11T13:41:38;130.65;;;60.58;;
46753;SDS011;32500;50.620;3.400;2024-01-11T13:44:05;132.30;;;60.33;;
46753;SDS011;32500;50.620;3.400;2024-01-11T13:46:32;130.77;;;60.00;;
46753;SDS011;32500;50.620;3.400;2024-01-11T13:48:58;130.10;;;59.40;;
46753;SDS011;32500;50.620;3.400;2024-01-11T13:51:23;134.70;;;60.35;;
46753;SDS011;32500;50.620;3.400;2024-01-11T13:53:49;130.63;;;59.83;;
46753;SDS011;32500;50.620;3.400;2024-01-11T13:56:15;133.07;;;61.05;;
46753;SDS011;32500;50.620;3.400;2024-01-11T13:58:40;130.60;;;59.95;;
46753;SDS011;32500;50.620;3.400;2024-01-11T14:01:06;132.25;;;60.50;;
46753;SDS011;32500;50.620;3.400;2024-01-11T14:03:32;132.00;;;60.38;;
46753;SDS011;32500;50.620;3.400;2024-01-11T14:05:59;132.63;;;60.03;;
46753;SDS011;32500;50.620;3.400;2024-01-11T14:08:25;133.80;;;60.88;;
46753;SDS011;32500;50.620;3.400;2024-01-11T14:10:51;132.43;;;60.17;;
46753;SDS011;32500;50.620;3.400;2024-01-11T14:13:17;131.75;;;59.47;;
46753;SDS011;32500;50.620;3.400;2024-01-11T14:15:42;131.98;;;60.58;;
46753;SDS011;32500;50.620;3.400;2024-01-11T14:18:08;131.88;;;60.05;;